Time,TemperatureF,DewpointF,PressureIn,WindDirection,WindDirectionDegrees,WindSpeedMPH,WindSpeedGustMPH,Humidity,HourlyPrecipIn,Conditions,Clouds,dailyrainin,SolarRadiationWatts/m^2,SoftwareType,DateUTC
2013-09-03 00:03:00,74.1,73.0,29.84,South,181,0.0,0.0,97,0.00,,,0.00,0,weatherlink.com 1.10,2013-09-03 04:03:00,
2013-09-03 00:18:00,73.9,73.0,29.84,South,181,0.0,0.0,96,0.00,,,0.00,0,weatherlink.com 1.10,2013-09-03 04:18:00,
2013-09-03 00:33:00,73.9,73.0,29.84,South,181,0.0,0.0,97,0.00,,,0.00,0,weatherlink.com 1.10,2013-09-03 04:33:00,
2013-09-03 00:48:00,73.8,73.0,29.84,South,181,0.0,0.0,97,0.00,,,0.00,0,weatherlink.com 1.10,2013-09-03 04:48:00,
2013-09-03 01:03:00,73.7,73.0,29.84,South,181,0.0,0.0,97,0.00,,,0.00,0,weatherlink.com 1.10,2013-09-03 05:03:00,
2013-09-03 01:18:00,73.5,73.0,29.84,South,181,0.0,0.0,97,0.00,,,0.00,0,weatherlink.com 1.10,2013-09-03 05:18:00,
2013-09-03 01:33:00,73.3,72.0,29.84,South,181,0.0,0.0,97,0.00,,,0.00,0,weatherlink.com 1.10,2013-09-03 05:33:00,
2013-09-03 01:48:00,73.2,72.0,29.83,South,181,0.0,0.0,97,0.00,,,0.00,0,weatherlink.com 1.10,2013-09-03 05:48:00,
2013-09-03 02:03:00,73.0,72.0,29.84,South,181,0.0,0.0,97,0.00,,,0.00,0,weatherlink.com 1.10,2013-09-03 06:03:00,
2013-09-03 02:18:00,72.9,72.0,29.83,South,181,0.0,0.0,97,0.00,,,0.00,0,weatherlink.com 1.10,2013-09-03 06:18:00,
2013-09-03 02:33:00,72.8,72.0,29.83,South,181,0.0,0.0,97,0.00,,,0.00,0,weatherlink.com 1.10,2013-09-03 06:33:00,
2013-09-03 02:48:00,72.8,72.0,29.82,South,181,0.0,0.0,97,0.00,,,0.00,0,weatherlink.com 1.10,2013-09-03 06:48:00,
2013-09-03 03:03:00,72.8,72.0,29.82,South,181,0.0,0.0,97,0.00,,,0.00,0,weatherlink.com 1.10,2013-09-03 07:03:00,
2013-09-03 03:18:00,72.8,72.0,29.81,South,181,0.0,0.0,97,0.00,,,0.00,0,weatherlink.com 1.10,2013-09-03 07:18:00,
2013-09-03 03:34:00,72.5,72.0,29.81,South,181,0.0,0.0,97,0.00,,,0.00,0,weatherlink.com 1.10,2013-09-03 07:34:00,
2013-09-03 03:49:00,72.5,72.0,29.81,South,181,0.0,0.0,97,0.00,,,0.00,0,weatherlink.com 1.10,2013-09-03 07:49:00,
2013-09-03 04:04:00,72.5,72.0,29.82,South,181,0.0,0.0,97,0.00,,,0.00,0,weatherlink.com 1.10,2013-09-03 08:04:00,
2013-09-03 04:19:00,72.6,72.0,29.82,South,181,0.0,0.0,97,0.00,,,0.00,0,weatherlink.com 1.10,2013-09-03 08:19:00,
2013-09-03 04:34:00,72.5,72.0,29.81,South,181,0.0,0.0,97,0.00,,,0.00,0,weatherlink.com 1.10,2013-09-03 08:34:00,
2013-09-03 04:49:00,72.3,71.0,29.81,South,181,0.0,0.0,97,0.00,,,0.00,0,weatherlink.com 1.10,2013-09-03 08:49:00,
2013-09-03 05:04:00,72.2,71.0,29.81,South,181,0.0,0.0,97,0.00,,,0.00,0,weatherlink.com 1.10,2013-09-03 09:04:00,
2013-09-03 05:19:00,72.0,71.0,29.81,South,181,0.0,0.0,97,0.00,,,0.00,0,weatherlink.com 1.10,2013-09-03 09:19:00,
2013-09-03 05:34:00,71.7,71.0,29.81,South,181,0.0,0.0,97,0.00,,,0.00,0,weatherlink.com 1.10,2013-09-03 09:34:00,
2013-09-03 05:49:00,71.7,71.0,29.82,South,181,0.0,0.0,97,0.00,,,0.00,0,weatherlink.com 1.10,2013-09-03 09:49:00,
2013-09-03 06:04:00,71.8,71.0,29.82,South,181,0.0,0.0,98,0.00,,,0.00,0,weatherlink.com 1.10,2013-09-03 10:04:00,
2013-09-03 06:19:00,71.9,71.0,29.82,South,181,0.0,0.0,98,0.00,,,0.00,0,weatherlink.com 1.10,2013-09-03 10:19:00,
2013-09-03 06:35:00,72.6,72.0,29.82,SSE,159,0.0,3.0,98,0.00,,,0.00,0,weatherlink.com 1.10,2013-09-03 10:35:00,
2013-09-03 06:49:00,73.0,72.0,29.83,South,175,0.0,3.0,98,0.00,,,0.00,0,weatherlink.com 1.10,2013-09-03 10:49:00,
2013-09-03 07:04:00,73.2,73.0,29.83,SSE,160,0.0,3.0,98,0.00,,,0.00,11,weatherlink.com 1.10,2013-09-03 11:04:00,
2013-09-03 07:19:00,73.4,73.0,29.84,South,175,0.0,0.0,97,0.00,,,0.00,35,weatherlink.com 1.10,2013-09-03 11:19:00,
2013-09-03 07:34:00,73.7,73.0,29.84,SSW,210,0.0,4.0,97,0.00,,,0.00,35,weatherlink.com 1.10,2013-09-03 11:34:00,
2013-09-03 07:49:00,73.6,73.0,29.85,WSW,249,0.0,0.0,97,0.00,,,0.00,51,weatherlink.com 1.10,2013-09-03 11:49:00,
2013-09-03 08:04:00,73.8,73.0,29.86,WSW,249,0.0,0.0,97,0.00,,,0.00,63,weatherlink.com 1.10,2013-09-03 12:04:00,
2013-09-03 08:19:00,74.2,73.0,29.87,South,170,2.0,3.0,97,0.00,,,0.00,130,weatherlink.com 1.10,2013-09-03 12:19:00,
2013-09-03 08:34:00,74.9,74.0,29.87,SSE,162,2.0,5.0,96,0.00,,,0.00,178,weatherlink.com 1.10,2013-09-03 12:34:00,
2013-09-03 08:49:00,75.4,74.0,29.88,West,260,6.0,6.0,95,0.00,,,0.00,127,weatherlink.com 1.10,2013-09-03 12:49:00,
2013-09-03 09:04:00,76.0,74.0,29.88,West,259,3.0,3.0,94,0.00,,,0.00,204,weatherlink.com 1.10,2013-09-03 13:04:00,
2013-09-03 09:19:00,76.2,74.0,29.87,WSW,250,0.0,7.0,92,0.00,,,0.00,165,weatherlink.com 1.10,2013-09-03 13:19:00,
2013-09-03 09:34:00,76.8,75.0,29.87,SSE,163,2.0,6.0,93,0.00,,,0.00,271,weatherlink.com 1.10,2013-09-03 13:34:00,
2013-09-03 09:49:00,77.5,75.0,29.87,WSW,242,0.0,7.0,91,0.00,,,0.00,216,weatherlink.com 1.10,2013-09-03 13:49:00,
2013-09-03 10:04:00,77.5,75.0,29.87,WSW,257,5.0,5.0,92,0.00,,,0.00,367,weatherlink.com 1.10,2013-09-03 14:04:00,
2013-09-03 10:19:00,78.4,75.0,29.88,SSE,164,0.0,5.0,90,0.00,,,0.00,202,weatherlink.com 1.10,2013-09-03 14:19:00,
2013-09-03 10:34:00,79.3,76.0,29.88,WSW,248,2.0,5.0,89,0.00,,,0.00,366,weatherlink.com 1.10,2013-09-03 14:34:00,
2013-09-03 10:49:00,79.5,76.0,29.88,WSW,248,0.0,4.0,88,0.00,,,0.00,599,weatherlink.com 1.10,2013-09-03 14:49:00,
2013-09-03 11:05:00,80.7,76.0,29.88,SW,216,0.0,7.0,85,0.00,,,0.00,617,weatherlink.com 1.10,2013-09-03 15:05:00,
2013-09-03 11:20:00,82.2,76.0,29.87,WSW,255,3.0,5.0,80,0.00,,,0.00,661,weatherlink.com 1.10,2013-09-03 15:20:00,
2013-09-03 11:35:00,82.7,76.0,29.88,WSW,248,0.0,8.0,80,0.00,,,0.00,575,weatherlink.com 1.10,2013-09-03 15:35:00,
2013-09-03 11:50:00,83.8,76.0,29.88,South,172,0.0,5.0,78,0.00,,,0.00,492,weatherlink.com 1.10,2013-09-03 15:50:00,
2013-09-03 12:05:00,84.5,77.0,29.88,West,262,0.0,5.0,77,0.00,,,0.00,269,weatherlink.com 1.10,2013-09-03 16:05:00,
2013-09-03 12:20:00,83.7,75.0,29.86,WNW,300,0.0,2.0,75,0.00,,,0.00,561,weatherlink.com 1.10,2013-09-03 16:20:00,
2013-09-03 12:35:00,85.3,75.0,29.86,WSW,245,0.0,6.0,72,0.00,,,0.00,371,weatherlink.com 1.10,2013-09-03 16:35:00,
2013-09-03 12:50:00,85.9,76.0,29.85,WNW,286,0.0,9.0,71,0.00,,,0.00,942,weatherlink.com 1.10,2013-09-03 16:50:00,
2013-09-03 13:05:00,84.9,75.0,29.85,WSW,248,2.0,4.0,72,0.00,,,0.00,926,weatherlink.com 1.10,2013-09-03 17:05:00,
2013-09-03 13:20:00,85.2,74.0,29.85,WSW,244,3.0,4.0,70,0.00,,,0.00,269,weatherlink.com 1.10,2013-09-03 17:20:00,
2013-09-03 13:35:00,85.1,75.0,29.84,SSE,155,0.0,5.0,71,0.00,,,0.00,234,weatherlink.com 1.10,2013-09-03 17:35:00,
2013-09-03 13:50:00,85.7,77.0,29.84,ESE,112,0.0,1.0,74,0.00,,,0.00,176,weatherlink.com 1.10,2013-09-03 17:50:00,
2013-09-03 14:05:00,85.1,76.0,29.84,ENE,66,0.0,0.0,74,0.00,,,0.00,218,weatherlink.com 1.10,2013-09-03 18:05:00,
2013-09-03 14:20:00,86.1,74.0,29.82,WSW,245,2.0,6.0,68,0.00,,,0.00,853,weatherlink.com 1.10,2013-09-03 18:20:00,
2013-09-03 14:35:00,86.3,76.0,29.82,SW,224,0.0,2.0,71,0.00,,,0.00,227,weatherlink.com 1.10,2013-09-03 18:35:00,
2013-09-03 14:50:00,85.5,75.0,29.82,West,265,0.0,4.0,71,0.00,,,0.00,265,weatherlink.com 1.10,2013-09-03 18:50:00,
2013-09-03 15:05:00,85.7,75.0,29.83,WSW,246,7.0,7.0,70,0.00,,,0.00,392,weatherlink.com 1.10,2013-09-03 19:05:00,
2013-09-03 15:20:00,85.7,76.0,29.81,WSW,256,1.0,2.0,73,0.00,,,0.00,253,weatherlink.com 1.10,2013-09-03 19:20:00,
2013-09-03 15:35:00,85.8,75.0,29.82,SW,234,1.0,4.0,69,0.00,,,0.00,128,weatherlink.com 1.10,2013-09-03 19:35:00,
2013-09-03 15:50:00,84.4,75.0,29.82,South,179,4.0,8.0,73,0.00,,,0.00,139,weatherlink.com 1.10,2013-09-03 19:50:00,
2013-09-03 16:05:00,83.4,75.0,29.81,SSE,151,0.0,7.0,75,0.00,,,0.00,656,weatherlink.com 1.10,2013-09-03 20:05:00,
2013-09-03 16:20:00,82.9,74.0,29.81,South,171,1.0,7.0,75,0.00,,,0.00,475,weatherlink.com 1.10,2013-09-03 20:20:00,
2013-09-03 16:35:00,83.6,74.0,29.81,SSW,192,3.0,8.0,72,0.00,,,0.00,645,weatherlink.com 1.10,2013-09-03 20:35:00,
2013-09-03 16:50:00,84.3,74.0,29.82,SSE,161,0.0,5.0,72,0.00,,,0.00,118,weatherlink.com 1.10,2013-09-03 20:50:00,
2013-09-03 17:05:00,85.0,75.0,29.81,SW,235,0.0,4.0,72,0.00,,,0.00,545,weatherlink.com 1.10,2013-09-03 21:05:00,
2013-09-03 17:20:00,85.0,75.0,29.82,WSW,252,1.0,4.0,71,0.00,,,0.00,125,weatherlink.com 1.10,2013-09-03 21:20:00,
2013-09-03 17:35:00,83.8,75.0,29.82,WSW,243,0.0,2.0,75,0.00,,,0.00,109,weatherlink.com 1.10,2013-09-03 21:35:00,
2013-09-03 17:50:00,83.7,76.0,29.83,WSW,248,0.0,3.0,77,0.00,,,0.00,127,weatherlink.com 1.10,2013-09-03 21:50:00,
2013-09-03 18:05:00,83.7,75.0,29.84,SSE,156,1.0,3.0,75,0.00,,,0.00,330,weatherlink.com 1.10,2013-09-03 22:05:00,
2013-09-03 18:20:00,83.3,73.0,29.84,SSE,161,0.0,3.0,72,0.00,,,0.00,257,weatherlink.com 1.10,2013-09-03 22:20:00,
2013-09-03 18:35:00,83.0,74.0,29.84,South,188,1.0,6.0,73,0.00,,,0.00,183,weatherlink.com 1.10,2013-09-03 22:35:00,
2013-09-03 18:50:00,82.4,74.0,29.84,West,265,0.0,6.0,75,0.00,,,0.00,51,weatherlink.com 1.10,2013-09-03 22:50:00,
2013-09-03 19:05:00,81.1,74.0,29.85,WSW,252,0.0,2.0,79,0.00,,,0.00,47,weatherlink.com 1.10,2013-09-03 23:05:00,
2013-09-03 19:20:00,80.6,75.0,29.85,WSW,252,0.0,0.0,84,0.00,,,0.00,19,weatherlink.com 1.10,2013-09-03 23:20:00,
2013-09-03 19:35:00,79.2,75.0,29.86,WSW,252,0.0,0.0,87,0.00,,,0.00,9,weatherlink.com 1.10,2013-09-03 23:35:00,
2013-09-03 19:50:00,77.8,74.0,29.86,WSW,252,0.0,0.0,89,0.00,,,0.00,0,weatherlink.com 1.10,2013-09-03 23:50:00,
2013-09-03 20:05:00,76.9,74.0,29.87,WSW,252,0.0,0.0,90,0.00,,,0.00,0,weatherlink.com 1.10,2013-09-04 00:05:00,
2013-09-03 20:20:00,76.1,73.0,29.88,NNE,17,0.0,2.0,91,0.00,,,0.00,0,weatherlink.com 1.10,2013-09-04 00:20:00,
2013-09-03 20:35:00,75.7,73.0,29.88,NNE,17,0.0,0.0,92,0.00,,,0.00,0,weatherlink.com 1.10,2013-09-04 00:35:00,
2013-09-03 20:50:00,75.4,73.0,29.89,NE,40,1.0,2.0,92,0.00,,,0.00,0,weatherlink.com 1.10,2013-09-04 00:50:00,
2013-09-03 21:06:00,75.1,73.0,29.90,NE,56,0.0,3.0,93,0.00,,,0.00,0,weatherlink.com 1.10,2013-09-04 01:06:00,
2013-09-03 21:20:00,74.8,73.0,29.91,NE,56,0.0,0.0,93,0.00,,,0.00,0,weatherlink.com 1.10,2013-09-04 01:20:00,
2013-09-03 21:35:00,74.5,73.0,29.91,NE,56,0.0,0.0,94,0.00,,,0.00,0,weatherlink.com 1.10,2013-09-04 01:35:00,
2013-09-03 21:50:00,74.1,72.0,29.92,NE,56,0.0,0.0,94,0.00,,,0.00,0,weatherlink.com 1.10,2013-09-04 01:50:00,
2013-09-03 22:05:00,73.7,72.0,29.93,NE,56,0.0,0.0,95,0.00,,,0.00,0,weatherlink.com 1.10,2013-09-04 02:05:00,
2013-09-03 22:20:00,73.4,72.0,29.93,NE,56,0.0,1.0,95,0.00,,,0.00,0,weatherlink.com 1.10,2013-09-04 02:20:00,
2013-09-03 22:36:00,73.1,72.0,29.93,NE,56,0.0,0.0,95,0.00,,,0.00,0,weatherlink.com 1.10,2013-09-04 02:36:00,
2013-09-03 22:51:00,72.7,71.0,29.93,NE,56,0.0,2.0,95,0.00,,,0.00,0,weatherlink.com 1.10,2013-09-04 02:51:00,
2013-09-03 23:06:00,72.5,71.0,29.93,NE,56,0.0,1.0,95,0.00,,,0.00,0,weatherlink.com 1.10,2013-09-04 03:06:00,
2013-09-03 23:21:00,72.1,71.0,29.93,NE,56,0.0,0.0,95,0.00,,,0.00,0,weatherlink.com 1.10,2013-09-04 03:21:00,
2013-09-03 23:36:00,71.8,70.0,29.93,NE,56,0.0,0.0,95,0.00,,,0.00,0,weatherlink.com 1.10,2013-09-04 03:36:00,
2013-09-03 23:51:00,71.7,71.0,29.94,NE,56,0.0,1.0,96,0.00,,,0.00,0,weatherlink.com 1.10,2013-09-04 03:51:00,